createdAt,value
2023-09-29T00:00:22.618Z,100835.16
2023-09-29T00:02:54.534Z,100828.13
2023-09-29T00:05:24.554Z,100826.44
2023-09-29T00:07:53.766Z,100826.44
2023-09-29T00:10:23.184Z,100831.22
2023-09-29T00:12:51.993Z,100831.22
2023-09-29T00:15:23.125Z,100827.81
2023-09-29T00:17:51.841Z,100822.34
2023-09-29T00:20:24.601Z,100824.22
2023-09-29T00:22:55.841Z,100826.28
2023-09-29T00:25:25.764Z,100824.72
2023-09-29T00:27:54.354Z,100831.91
2023-09-29T00:30:22.691Z,100828.47
2023-09-29T00:32:52.585Z,100826.75
2023-09-29T00:35:26.520Z,100819.59
2023-09-29T00:37:56.970Z,100821.47
2023-09-29T00:40:26.905Z,100825.06
2023-09-29T00:42:55.777Z,100819.94
2023-09-29T00:45:25.053Z,100828.13
2023-09-29T00:47:56.837Z,100818.25
2023-09-29T00:50:27.556Z,100827.47
2023-09-29T00:53:00.926Z,100827.78
2023-09-29T00:55:31.969Z,100822.31
2023-09-29T00:58:04.049Z,100820.63
2023-09-29T01:00:33.234Z,100826.06
2023-09-29T01:03:04.808Z,100827.25
2023-09-29T01:05:36.669Z,100820.09
2023-09-29T01:08:10.246Z,100823.00
2023-09-29T01:10:39.240Z,100823.84
2023-09-29T01:13:08.191Z,100817.69
2023-09-29T01:15:37.616Z,100824.13
2023-09-29T01:18:07.733Z,100822.44
2023-09-29T01:20:42.380Z,100819.88
2023-09-29T01:23:12.581Z,100819.03
2023-09-29T01:25:42.402Z,100828.22
2023-09-29T01:28:11.734Z,100821.94
2023-09-29T01:30:42.061Z,100814.78
2023-09-29T01:33:10.437Z,100814.09
2023-09-29T01:35:41.039Z,100811.38
2023-09-29T01:38:09.532Z,100818.00
2023-09-29T01:40:37.972Z,100819.88
2023-09-29T01:43:08.363Z,100819.88
2023-09-29T01:45:39.124Z,100814.41
2023-09-29T01:48:08.551Z,100819.19
2023-09-29T01:50:37.762Z,100818.31
2023-09-29T01:53:08.136Z,100816.63
2023-09-29T01:55:36.378Z,100819.53
2023-09-29T01:58:04.910Z,100823.28
2023-09-29T02:00:34.644Z,100826.13
2023-09-29T02:03:07.236Z,100819.84
2023-09-29T02:05:35.796Z,100819.84
2023-09-29T02:08:06.879Z,100823.59
2023-09-29T02:10:35.115Z,100814.72
2023-09-29T02:13:05.703Z,100814.72
2023-09-29T02:15:36.675Z,100809.44
2023-09-29T02:18:06.900Z,100809.63
2023-09-29T02:20:37.098Z,100819.66
2023-09-29T02:23:06.991Z,100818.81
2023-09-29T02:25:35.625Z,100818.81
2023-09-29T02:28:04.939Z,100815.38
2023-09-29T02:30:33.128Z,100815.56
2023-09-29T02:33:06.050Z,100804.81
2023-09-29T02:35:34.227Z,100813.00
2023-09-29T02:38:03.049Z,100812.31
2023-09-29T02:40:31.464Z,100816.06
2023-09-29T02:42:59.583Z,100809.75
2023-09-29T02:45:27.818Z,100817.09
2023-09-29T02:47:56.806Z,100809.94
2023-09-29T02:50:27.144Z,100810.06
2023-09-29T02:52:56.119Z,100813.81
2023-09-29T02:55:24.558Z,100807.50
2023-09-29T02:57:53.733Z,100817.56
2023-09-29T03:00:24.749Z,100815.00
2023-09-29T03:02:53.769Z,100806.16
2023-09-29T03:05:23.298Z,100806.16
2023-09-29T03:07:55.869Z,100809.91
2023-09-29T03:10:26.521Z,100808.19
2023-09-29T03:12:57.965Z,100807.47
2023-09-29T03:15:27.162Z,100803.78
2023-09-29T03:17:59.285Z,100804.75
2023-09-29T03:20:29.220Z,100812.25
2023-09-29T03:23:05.921Z,100808.69
2023-09-29T03:25:34.473Z,100811.56
2023-09-29T03:28:03.637Z,100808.84
2023-09-29T03:30:32.443Z,100809.88
2023-09-29T03:33:01.100Z,100809.19
2023-09-29T03:35:32.422Z,100810.03
2023-09-29T03:38:06.139Z,100804.75
2023-09-29T03:40:34.982Z,100807.47
2023-09-29T03:43:04.657Z,100804.03
2023-09-29T03:45:33.067Z,100816.81
2023-09-29T03:48:01.225Z,100815.09
2023-09-29T03:50:29.685Z,100816.13
2023-09-29T03:52:58.029Z,100818.16
2023-09-29T03:55:28.173Z,100811.88
2023-09-29T03:57:56.517Z,100820.03
2023-09-29T04:00:24.631Z,100815.59
2023-09-29T04:02:53.456Z,100819.34
2023-09-29T04:05:22.374Z,100817.66
2023-09-29T04:07:50.697Z,100822.25
2023-09-29T04:10:19.242Z,100825.09
2023-09-29T04:12:49.740Z,100821.53
2023-09-29T04:15:18.542Z,100822.53
2023-09-29T04:17:46.960Z,100827.13
2023-09-29T04:20:16.812Z,100820.00
2023-09-29T04:22:45.228Z,100825.44
2023-09-29T04:25:13.386Z,100828.28
2023-09-29T04:27:42.216Z,100825.75
2023-09-29T04:30:13.789Z,100826.59
2023-09-29T04:32:42.764Z,100825.75
2023-09-29T04:35:11.563Z,100829.47
2023-09-29T04:37:40.004Z,100833.22
2023-09-29T04:40:09.826Z,100836.94
2023-09-29T04:42:38.253Z,100836.09
2023-09-29T04:45:09.321Z,100831.66
2023-09-29T04:47:42.880Z,100835.22
2023-09-29T04:50:12.569Z,100840.00
2023-09-29T04:52:41.066Z,100842.72
2023-09-29T04:55:10.504Z,100845.59
2023-09-29T04:57:38.939Z,100841.19
2023-09-29T05:00:08.824Z,100839.31
2023-09-29T05:02:37.072Z,100844.91
2023-09-29T05:05:07.604Z,100845.94
2023-09-29T05:07:36.812Z,100851.38
2023-09-29T05:10:05.573Z,100849.69
2023-09-29T05:12:34.645Z,100853.38
2023-09-29T05:15:03.476Z,100853.56
2023-09-29T05:17:44.974Z,100854.56
2023-09-29T05:20:20.285Z,100861.72
2023-09-29T05:22:48.603Z,100849.13
2023-09-29T05:25:16.999Z,100853.72
2023-09-29T05:27:45.449Z,100856.44
2023-09-29T05:30:14.593Z,100851.16
2023-09-29T05:32:43.116Z,100851.16
2023-09-29T05:35:11.820Z,100853.19
2023-09-29T05:37:41.699Z,100848.59
2023-09-29T05:40:11.647Z,100854.22
2023-09-29T05:42:51.905Z,100851.50
2023-09-29T05:45:22.341Z,100852.34
2023-09-29T05:47:53.166Z,100858.81
2023-09-29T05:50:22.464Z,100853.50
2023-09-29T05:53:09.266Z,100856.22
2023-09-29T05:55:39.517Z,100858.09
2023-09-29T05:58:07.912Z,100857.22
2023-09-29T06:00:37.434Z,100862.69
2023-09-29T06:03:06.473Z,100862.69
2023-09-29T06:05:35.235Z,100871.84
2023-09-29T06:08:05.136Z,100870.00
2023-09-29T06:10:33.562Z,100871.84
2023-09-29T06:13:04.428Z,100860.97
2023-09-29T06:15:33.791Z,100865.56
2023-09-29T06:18:02.388Z,100867.44
2023-09-29T06:20:30.852Z,100871.00
2023-09-29T06:22:59.244Z,100872.88
2023-09-29T06:25:28.731Z,100880.03
2023-09-29T06:27:57.137Z,100873.91
2023-09-29T06:30:25.477Z,100872.03
2023-09-29T06:32:54.048Z,100877.47
2023-09-29T06:35:22.476Z,100883.75
2023-09-29T06:37:52.612Z,100882.06
2023-09-29T06:40:21.022Z,100884.78
2023-09-29T06:42:51.021Z,100882.06
2023-09-29T06:45:19.465Z,100881.22
2023-09-29T06:47:47.576Z,100882.22
2023-09-29T06:50:15.887Z,100888.53
2023-09-29T06:52:43.935Z,100882.22
2023-09-29T06:55:14.068Z,100893.09
2023-09-29T06:57:43.195Z,100895.84
2023-09-29T07:00:14.520Z,100892.25
2023-09-29T07:02:44.030Z,100886.81
2023-09-29T07:05:12.750Z,100897.69
2023-09-29T07:07:40.938Z,100898.56
2023-09-29T07:10:10.347Z,100901.44
2023-09-29T07:12:38.655Z,100894.97
2023-09-29T07:15:08.062Z,100903.16
2023-09-29T07:17:38.049Z,100906.88
2023-09-29T07:20:07.225Z,100906.88
2023-09-29T07:22:36.284Z,100905.19
2023-09-29T07:25:04.538Z,100909.59
2023-09-29T07:27:33.120Z,100910.63
2023-09-29T07:30:01.277Z,100907.91
2023-09-29T07:32:29.433Z,100909.59
2023-09-29T07:34:58.847Z,100910.63
2023-09-29T07:37:27.132Z,100910.63
2023-09-29T07:39:55.507Z,100916.91
2023-09-29T07:42:24.209Z,100914.19
2023-09-29T07:44:52.409Z,100917.78
2023-09-29T07:47:20.882Z,100910.63
2023-09-29T07:49:48.962Z,100917.78
2023-09-29T07:52:18.744Z,100923.22
2023-09-29T07:54:46.798Z,100917.78
2023-09-29T07:57:15.186Z,100916.75
2023-09-29T07:59:43.621Z,100918.63
2023-09-29T08:02:12.020Z,100920.50
2023-09-29T08:04:40.175Z,100917.59
2023-09-29T08:07:09.556Z,100918.47
2023-09-29T08:09:39.134Z,100919.31
2023-09-29T08:12:07.713Z,100921.19
2023-09-29T08:14:36.097Z,100916.59
2023-09-29T08:17:04.227Z,100914.72
2023-09-29T08:19:32.345Z,100916.44
2023-09-29T08:22:00.694Z,100920.00
2023-09-29T08:24:29.108Z,100915.41
2023-09-29T08:26:58.982Z,100911.66
2023-09-29T08:29:27.924Z,100908.94
2023-09-29T08:31:57.428Z,100913.38
2023-09-29T08:34:25.760Z,100910.66
2023-09-29T08:36:54.166Z,100909.63
2023-09-29T08:39:22.433Z,100904.19
2023-09-29T08:41:57.448Z,100908.66
2023-09-29T08:44:28.698Z,100901.34
2023-09-29T08:47:02.162Z,100905.59
2023-09-29T08:49:47.921Z,100895.72
2023-09-29T08:52:21.190Z,100903.72
2023-09-29T08:54:51.285Z,100909.00
2023-09-29T08:57:20.975Z,100909.00
2023-09-29T08:59:54.156Z,100913.28
2023-09-29T09:02:23.025Z,100913.28
2023-09-29T09:04:51.381Z,100913.16
2023-09-29T09:07:21.056Z,100904.97
2023-09-29T09:09:51.596Z,100910.09
2023-09-29T09:12:20.086Z,100906.34
2023-09-29T09:14:48.480Z,100907.19
2023-09-29T09:17:19.137Z,100904.31
2023-09-29T09:19:52.644Z,100903.28
2023-09-29T09:22:35.294Z,100903.13
2023-09-29T09:25:15.607Z,100901.13
2023-09-29T09:27:45.211Z,100903.69
2023-09-29T09:30:23.372Z,100904.41
2023-09-29T09:32:53.687Z,100906.97
2023-09-29T09:35:26.043Z,100896.94
2023-09-29T09:37:54.414Z,100892.16
2023-09-29T09:40:24.300Z,100892.03
2023-09-29T09:42:54.555Z,100892.53
2023-09-29T09:45:27.067Z,100899.53
2023-09-29T09:48:02.624Z,100898.38
2023-09-29T09:50:33.023Z,100893.44
2023-09-29T09:53:04.061Z,100892.25
2023-09-29T09:55:41.316Z,100889.38
2023-09-29T09:58:13.501Z,100893.66
2023-09-29T10:00:45.604Z,100887.03
2023-09-29T10:03:18.234Z,100890.28
2023-09-29T10:05:54.122Z,100889.97
2023-09-29T10:08:34.439Z,100885.19
2023-09-29T10:11:13.818Z,100882.81
2023-09-29T10:13:43.901Z,100886.94
2023-09-29T10:16:23.042Z,100876.56
2023-09-29T10:19:00.631Z,100876.06
2023-09-29T10:21:32.066Z,100876.59
2023-09-29T10:24:02.174Z,100872.50
2023-09-29T10:26:30.923Z,100870.31
2023-09-29T10:29:03.392Z,100866.22
2023-09-29T10:31:31.919Z,100869.34
2023-09-29T10:34:02.712Z,100869.69
2023-09-29T10:36:32.593Z,100865.63
2023-09-29T10:39:05.451Z,100866.81
2023-09-29T10:41:37.261Z,100865.47
2023-09-29T10:44:07.155Z,100862.22
2023-09-29T10:46:35.854Z,100857.13
2023-09-29T10:49:06.212Z,100851.34
2023-09-29T10:51:34.424Z,100846.22
2023-09-29T10:54:07.857Z,100848.28
2023-09-29T10:56:38.637Z,100841.44
2023-09-29T10:59:08.735Z,100833.59
2023-09-29T11:01:37.287Z,100832.22
2023-09-29T11:04:10.763Z,100823.38
2023-09-29T11:06:44.733Z,100830.19
2023-09-29T11:09:18.338Z,100824.06
2023-09-29T11:11:46.936Z,100824.41
2023-09-29T11:14:15.311Z,100819.47
2023-09-29T11:16:43.682Z,100816.03
2023-09-29T11:19:15.740Z,100812.78
2023-09-29T11:21:44.297Z,100823.03
2023-09-29T11:24:14.873Z,100807.97
2023-09-29T11:26:47.686Z,100809.34
2023-09-29T11:29:23.425Z,100814.09
2023-09-29T11:31:52.846Z,100807.09
2023-09-29T11:34:23.714Z,100803.81
2023-09-29T11:36:53.230Z,100800.56
2023-09-29T11:39:23.631Z,100797.28
2023-09-29T11:41:52.493Z,100796.63
2023-09-29T11:44:21.053Z,100792.50
2023-09-29T11:46:49.237Z,100785.47
2023-09-29T11:49:18.687Z,100788.50
2023-09-29T11:51:53.886Z,100779.81
2023-09-29T11:54:22.294Z,100779.25
2023-09-29T11:56:50.551Z,100780.44
2023-09-29T11:59:18.697Z,100783.44
2023-09-29T12:01:47.129Z,100773.03
2023-09-29T12:04:15.544Z,100765.13
2023-09-29T12:06:43.920Z,100771.75
2023-09-29T12:09:13.665Z,100767.81
2023-09-29T12:11:42.048Z,100754.44
2023-09-29T12:14:10.680Z,100756.81
2023-09-29T12:16:41.991Z,100764.31
2023-09-29T12:19:10.191Z,100753.88
2023-09-29T12:21:38.616Z,100765.13
2023-09-29T12:24:07.865Z,100752.09
2023-09-29T12:26:37.613Z,100755.97
2023-09-29T12:29:06.451Z,100756.47
2023-09-29T12:31:34.778Z,100751.28
2023-09-29T12:34:05.124Z,100749.91
2023-09-29T12:36:33.197Z,100740.47
2023-09-29T12:39:02.200Z,100737.16
2023-09-29T12:41:30.382Z,100743.13
2023-09-29T12:43:59.827Z,100740.88
2023-09-29T12:46:31.012Z,100738.63
2023-09-29T12:49:00.461Z,100732.78
2023-09-29T12:51:29.106Z,100737.66
2023-09-29T12:53:57.928Z,100734.56
2023-09-29T12:56:27.410Z,100731.44
2023-09-29T12:58:57.006Z,100722.84
2023-09-29T13:01:27.603Z,100723.38
2023-09-29T13:03:56.741Z,100720.25
2023-09-29T13:06:25.837Z,100718.19
2023-09-29T13:08:55.265Z,100721.41
2023-09-29T13:11:24.321Z,100726.50
2023-09-29T13:13:52.745Z,100717.91
2023-09-29T13:16:21.141Z,100719.59
2023-09-29T13:18:53.272Z,100711.03
2023-09-29T13:21:21.769Z,100712.53
2023-09-29T13:23:50.202Z,100709.41
2023-09-29T13:26:18.740Z,100719.09
2023-09-29T13:28:47.564Z,100717.06
2023-09-29T13:31:15.680Z,100702.97
2023-09-29T13:33:44.203Z,100706.16
2023-09-29T13:36:14.588Z,100705.81
2023-09-29T13:38:43.030Z,100709.19
2023-09-29T13:41:11.825Z,100702.47
2023-09-29T13:43:40.768Z,100699.34
2023-09-29T13:46:09.394Z,100700.88
2023-09-29T13:48:40.681Z,100700.47
2023-09-29T13:51:09.435Z,100693.75
2023-09-29T13:53:43.904Z,100696.13
2023-09-29T13:56:12.391Z,100698.47
2023-09-29T13:58:41.280Z,100690.75
2023-09-29T14:01:12.844Z,100697.75
2023-09-29T14:03:41.588Z,100689.13
2023-09-29T14:06:16.212Z,100689.59
2023-09-29T14:08:45.851Z,100688.19
2023-09-29T14:11:14.308Z,100686.94
2023-09-29T14:13:42.676Z,100681.06
2023-09-29T14:16:10.986Z,100683.44
2023-09-29T14:18:39.251Z,100680.28
2023-09-29T14:21:07.936Z,100673.56
2023-09-29T14:23:36.370Z,100682.22
2023-09-29T14:26:10.301Z,100667.31
2023-09-29T14:28:38.489Z,100669.63
2023-09-29T14:31:06.603Z,100668.41
2023-09-29T14:33:34.853Z,100656.56
2023-09-29T14:36:08.958Z,100658.75
2023-09-29T14:38:38.385Z,100656.66
2023-09-29T14:41:10.599Z,100655.59
2023-09-29T14:43:39.348Z,100656.88
2023-09-29T14:46:10.944Z,100649.34
2023-09-29T14:48:39.534Z,100649.97
2023-09-29T14:51:08.180Z,100652.31
2023-09-29T14:53:37.742Z,100644.09
2023-09-29T14:56:11.602Z,100644.72
2023-09-29T14:58:39.952Z,100648.19
2023-09-29T15:01:08.037Z,100646.09
2023-09-29T15:03:37.344Z,100642.28
2023-09-29T15:06:09.715Z,100647.78
2023-09-29T15:08:40.704Z,100640.19
2023-09-29T15:11:11.591Z,100641.88
2023-09-29T15:13:40.955Z,100639.16
2023-09-29T15:16:13.770Z,100640.00
2023-09-29T15:18:42.192Z,100642.53
2023-09-29T15:21:10.476Z,100639.78
2023-09-29T15:23:38.930Z,100631.75
2023-09-29T15:26:07.351Z,100638.09
2023-09-29T15:28:37.101Z,100639.78
2023-09-29T15:31:05.511Z,100645.28
2023-09-29T15:33:33.935Z,100640.84
2023-09-29T15:36:02.457Z,100638.09
2023-09-29T15:38:30.937Z,100638.09
2023-09-29T15:40:59.397Z,100637.25
2023-09-29T15:43:27.726Z,100640.00
2023-09-29T15:45:57.256Z,100635.56
2023-09-29T15:48:26.109Z,100636.81
2023-09-29T15:50:56.548Z,100634.06
2023-09-29T15:53:25.086Z,100635.97
2023-09-29T15:55:55.106Z,100647.13
2023-09-29T15:58:23.261Z,100642.00
2023-09-29T16:00:51.662Z,100638.41
2023-09-29T16:03:21.477Z,100641.56
2023-09-29T16:05:49.923Z,100642.81
2023-09-29T16:08:18.222Z,100643.84
2023-09-29T16:10:47.057Z,100648.66
2023-09-29T16:13:18.241Z,100651.81
2023-09-29T16:15:47.100Z,100646.72
2023-09-29T16:18:15.376Z,100650.53
2023-09-29T16:20:44.947Z,100653.63
2023-09-29T16:23:13.089Z,100653.00
2023-09-29T16:25:43.157Z,100648.75
2023-09-29T16:28:12.488Z,100658.22
2023-09-29T16:30:40.686Z,100659.28
2023-09-29T16:33:09.077Z,100660.50
2023-09-29T16:35:38.439Z,100656.25
2023-09-29T16:38:08.642Z,100656.66
2023-09-29T16:40:37.051Z,100657.88
2023-09-29T16:43:05.666Z,100655.34
2023-09-29T16:45:35.266Z,100662.06
2023-09-29T16:48:03.938Z,100666.91
2023-09-29T16:50:32.269Z,100662.47
2023-09-29T16:53:00.465Z,100658.41
2023-09-29T16:55:30.667Z,100660.28
2023-09-29T16:57:58.992Z,100660.69
2023-09-29T17:00:27.516Z,100658.16
2023-09-29T17:02:56.319Z,100657.66
2023-09-29T17:05:24.853Z,100665.22
2023-09-29T17:07:54.898Z,100670.03
2023-09-29T17:10:23.538Z,100672.13
2023-09-29T17:12:53.401Z,100669.75
2023-09-29T17:15:23.034Z,100677.31
2023-09-29T17:17:51.544Z,100673.94
2023-09-29T17:20:20.203Z,100675.38
2023-09-29T17:22:48.535Z,100678.13
2023-09-29T17:25:18.606Z,100673.00
2023-09-29T17:27:50.099Z,100674.03
2023-09-29T17:30:20.083Z,100668.97
2023-09-29T17:32:48.508Z,100679.25
2023-09-29T17:35:17.290Z,100675.84
2023-09-29T17:37:45.457Z,100680.66
2023-09-29T17:40:14.579Z,100675.59
2023-09-29T17:42:43.120Z,100685.88
2023-09-29T17:45:12.994Z,100687.09
2023-09-29T17:47:42.954Z,100688.97
2023-09-29T17:50:11.942Z,100691.25
2023-09-29T17:52:40.816Z,100698.81
2023-09-29T17:55:09.922Z,100696.28
2023-09-29T17:57:38.410Z,100697.50
2023-09-29T18:00:08.075Z,100698.53
2023-09-29T18:02:36.529Z,100700.81
2023-09-29T18:05:07.478Z,100702.03
2023-09-29T18:07:50.997Z,100702.25
2023-09-29T18:10:28.641Z,100704.28
2023-09-29T18:12:57.998Z,100707.41
2023-09-29T18:15:26.734Z,100704.03
2023-09-29T18:17:56.005Z,100701.47
2023-09-29T18:20:26.520Z,100702.66
2023-09-29T18:22:55.189Z,100696.53
2023-09-29T18:25:23.954Z,100698.59
2023-09-29T18:27:52.827Z,100699.66
2023-09-29T18:30:21.912Z,100700.88
2023-09-29T18:32:50.896Z,100699.34
2023-09-29T18:35:19.750Z,100700.38
2023-09-29T18:37:49.872Z,100698.03
2023-09-29T18:40:18.664Z,100701.81
2023-09-29T18:42:47.464Z,100699.44
2023-09-29T18:45:16.246Z,100703.22
2023-09-29T18:47:46.063Z,100702.53
2023-09-29T18:50:16.892Z,100707.38
2023-09-29T18:52:46.181Z,100704.81
2023-09-29T18:55:16.486Z,100714.25
2023-09-29T18:57:45.420Z,100706.22
2023-09-29T19:00:15.218Z,100703.00
2023-09-29T19:02:46.508Z,100712.25
2023-09-29T19:05:15.708Z,100711.59
2023-09-29T19:07:44.443Z,100716.38
2023-09-29T19:10:18.566Z,100713.00
2023-09-29T19:12:47.450Z,100714.22
2023-09-29T19:15:16.584Z,100711.66
2023-09-29T19:17:45.919Z,100713.75
2023-09-29T19:20:14.788Z,100710.31
2023-09-29T19:22:43.371Z,100706.94
2023-09-29T19:25:12.205Z,100704.56
2023-09-29T19:27:41.936Z,100705.63
2023-09-29T19:30:11.946Z,100706.84
2023-09-29T19:32:41.420Z,100705.97
2023-09-29T19:35:11.216Z,100710.78
2023-09-29T19:37:39.974Z,100709.25
2023-09-29T19:40:10.017Z,100710.28
2023-09-29T19:42:39.062Z,100712.34
2023-09-29T19:45:10.719Z,100710.81
2023-09-29T19:47:39.661Z,100712.88
2023-09-29T19:50:09.248Z,100714.94
2023-09-29T19:52:38.066Z,100717.03
2023-09-29T19:55:10.156Z,100708.16
2023-09-29T19:57:38.965Z,100706.16
2023-09-29T20:00:12.921Z,100719.44
2023-09-29T20:02:41.762Z,100726.97
2023-09-29T20:05:14.070Z,100722.53
2023-09-29T20:07:42.923Z,100721.88
2023-09-29T20:10:12.123Z,100722.22
2023-09-29T20:12:42.849Z,100717.81
2023-09-29T20:15:13.441Z,100715.25
2023-09-29T20:17:42.014Z,100719.22
2023-09-29T20:20:11.385Z,100716.66
2023-09-29T20:22:39.843Z,100716.00
2023-09-29T20:25:11.114Z,100710.69
2023-09-29T20:27:39.587Z,100719.91
2023-09-29T20:30:10.087Z,100711.06
2023-09-29T20:32:39.981Z,100718.59
2023-09-29T20:35:09.271Z,100729.88
2023-09-29T20:37:37.623Z,100718.09
2023-09-29T20:40:06.823Z,100719.31
2023-09-29T20:42:35.167Z,100723.06
2023-09-29T20:45:24.961Z,100727.88
2023-09-29T20:48:25.423Z,100724.47
2023-09-29T20:51:27.003Z,100726.88
2023-09-29T20:54:19.750Z,100731.31
2023-09-29T20:57:09.725Z,100735.09
2023-09-29T20:59:38.452Z,100730.84
2023-09-29T21:02:08.370Z,100736.50
2023-09-29T21:04:37.911Z,100735.78
2023-09-29T21:07:06.337Z,100728.63
2023-09-29T21:09:34.738Z,100729.84
2023-09-29T21:12:03.248Z,100737.38
2023-09-29T21:14:32.360Z,100738.56
2023-09-29T21:17:02.798Z,100734.13
2023-09-29T21:19:35.195Z,100738.03
2023-09-29T21:22:04.995Z,100732.75
2023-09-29T21:24:35.143Z,100732.94
2023-09-29T21:27:03.487Z,100734.84
2023-09-29T21:29:31.873Z,100734.16
2023-09-29T21:32:00.004Z,100736.19
2023-09-29T21:34:28.254Z,100730.06
2023-09-29T21:36:56.394Z,100738.25
2023-09-29T21:39:26.488Z,100732.31
2023-09-29T21:41:54.839Z,100728.75
2023-09-29T21:44:23.323Z,100736.25
2023-09-29T21:46:51.513Z,100733.69
2023-09-29T21:49:21.747Z,100727.56
2023-09-29T21:51:51.540Z,100732.16
2023-09-29T21:54:20.047Z,100728.75
2023-09-29T21:56:49.502Z,100725.38
2023-09-29T21:59:40.427Z,100721.97
2023-09-29T22:02:10.587Z,100721.97
2023-09-29T22:04:39.049Z,100717.69
2023-09-29T22:07:07.432Z,100715.13
2023-09-29T22:09:38.781Z,100719.94
2023-09-29T22:12:08.816Z,100719.25
2023-09-29T22:14:37.212Z,100717.56
2023-09-29T22:17:05.612Z,100715.88
2023-09-29T22:19:36.362Z,100712.63
2023-09-29T22:22:05.108Z,100709.88
2023-09-29T22:24:33.519Z,100724.56
2023-09-29T22:27:01.909Z,100716.56
2023-09-29T22:29:32.256Z,100718.63
2023-09-29T22:32:00.758Z,100717.94
2023-09-29T22:34:29.125Z,100719.97
2023-09-29T22:36:57.758Z,100719.31
2023-09-29T22:39:40.473Z,100721.38
2023-09-29T22:42:14.874Z,100720.53
2023-09-29T22:44:44.693Z,100724.28
2023-09-29T22:47:16.142Z,100724.47
2023-09-29T22:49:44.867Z,100719.16
2023-09-29T22:52:13.780Z,100721.03
2023-09-29T22:54:42.301Z,100717.63
2023-09-29T22:57:10.542Z,100716.13
2023-09-29T22:59:39.035Z,100716.25
2023-09-29T23:02:09.323Z,100720.03
2023-09-29T23:04:37.864Z,100721.00
2023-09-29T23:07:06.736Z,100720.34
2023-09-29T23:09:35.290Z,100725.13
2023-09-29T23:12:04.547Z,100723.44
2023-09-29T23:14:34.559Z,100721.72
2023-09-29T23:17:02.767Z,100722.75
2023-09-29T23:19:33.224Z,100722.94
2023-09-29T23:22:01.361Z,100724.97
2023-09-29T23:24:29.649Z,100733.34
2023-09-29T23:26:59.277Z,100723.44
2023-09-29T23:29:27.922Z,100727.38
2023-09-29T23:31:57.509Z,100733.69
2023-09-29T23:34:25.764Z,100730.28
2023-09-29T23:36:55.392Z,100729.59
2023-09-29T23:39:23.599Z,100731.47
2023-09-29T23:41:51.985Z,100736.06
2023-09-29T23:44:20.410Z,100730.97
2023-09-29T23:46:48.670Z,100733.69
2023-09-29T23:49:17.981Z,100728.59
2023-09-29T23:51:46.483Z,100734.06
2023-09-29T23:54:16.606Z,100734.38
2023-09-29T23:56:44.842Z,100737.09
2023-09-29T23:59:14.724Z,100736.44
